Ambleve, Belgium
Current Conditions -  °F | °C
As of 11:34 PM on Friday 31 Oct 2014 (Local Time) from EBLB Reporting Station
Clear Clear  
Wind Chill: 48°   Ceiling: Unl
Heat Index: 48°   Visibility: 2.1mi
Dew Point: 46°   Wind: 3mph
Humidity: 93%   Direction: 270°W
Pressure: 30.24"   Gusts: NA
Location:  50.35°N, 6.17°E
Report Text: EBLB 312234Z AUTO 27003KT 3500 NCD 09/08 Q1024 YLO
Loading
Personal Weather Stations






























Interactive Weather Map New forecast layout! Learn more

10-Day Weather Forecast

Advertisements
Track Severe Weather on mobile